Regal Star — ESCM — position and weather

sailwx.info

Track history (hours):
 
Tides and Currents Weather Stations Pressure Air Temp Water Temp Dewpoint Dewpoint Depression Visibility Wind Speed Wind Dir Waves Ship Positions

Regal Star

Last reported at 2015-Sep-01 23:29 UTC. Time now 2015-Sep-02 16:57 UTC.
Position N 59°28' E 021°17'.

Length 157 m; draft 5.7 m.

Type: Passenger vessel. MMSI: 276554000.

Date/timePositionNaut miles runAvg speedWind from/ knotsBaromVisibWave heightAir tempDewpointWater temp
2015-Sep-01 23:29N 59°28' E 021°17'42 1.9
2015-Sep-01 02:07N 59°23' E 022°38'2314.6
2015-Sep-01 00:33N 59°28' E 021°54'1515.2
2015-Aug-31 23:33N 59°33' E 021°26'1515.1
2015-Aug-31 22:33N 59°37' E 020°57'57 3.1
2015-Aug-31 04:14N 59°43' E 019°04'913.5
2015-Aug-31 03:33N 59°46' E 019°22'5315.5
2015-Aug-31 00:09N 59°31' E 021°02'915.9
2015-Aug-30 23:33N 59°28' E 021°20'1815.8
2015-Aug-30 22:25N 59°24' E 021°54'3615.9
2015-Aug-30 20:07N 59°21' E 023°05'33 3.8
2015-Aug-30 11:22N 59°27' E 022°02'1416.2
2015-Aug-30 10:32N 59°31' E 021°36'1716.3
2015-Aug-30 09:30N 59°36' E 021°04'10 1.0
2015-Aug-29 23:33N 59°29' E 021°16'1514.9
2015-Aug-29 22:33N 59°26' E 021°45'1715.2
2015-Aug-29 21:27N 59°22' E 022°18'8 0.4
2015-Aug-29 01:19N 59°27' E 022°04'1215.2
2015-Aug-29 00:33N 59°30' E 021°43'1715.4
2015-Aug-28 23:29N 59°35' E 021°11'10 0.4
2015-Aug-27 23:22N 59°28' E 021°27'1214.4
2015-Aug-27 22:33N 59°26' E 021°50'4514.8
2015-Aug-27 19:29N 59°22' E 023°18'1516.0
2015-Aug-27 18:33N 59°23' E 023°47'54 3.1
2015-Aug-27 01:07N 59°27' E 022°02'815.1
2015-Aug-27 00:33N 59°30' E 021°46'1515.2
2015-Aug-26 23:33N 59°34' E 021°17'16 0.7
2015-Aug-25 22:33N 59°26' E 021°45'3115.4
2015-Aug-25 20:33N 59°21' E 022°45'1615.7
2015-Aug-25 19:32N 59°22' E 023°17'25 2.5
2015-Aug-25 09:33N 59°20' E 024°05'0 0.0
2015-Aug-25 08:33N 59°20' E 024°05'0 0.0
2015-Aug-25 07:06N 59°20' E 024°05'0 0.0
2015-Aug-25 06:30N 59°20' E 024°05'0 0.0
2015-Aug-25 05:33N 59°20' E 024°05'1110.8
2015-Aug-25 04:33N 59°23' E 023°45'1515.0
2015-Aug-25 03:33N 59°23' E 023°15'1515.3
2015-Aug-25 02:34N 59°23' E 022°45'1515.4
2015-Aug-25 01:34N 59°25' E 022°15'1615.6
2015-Aug-25 00:33N 59°30' E 021°46'1615.6
2015-Aug-24 23:34N 59°34' E 021°17'1615.5
2015-Aug-24 22:33N 59°39' E 020°47'1515.1
2015-Aug-24 21:33N 59°45' E 020°19'1515.5
2015-Aug-24 20:33N 59°45' E 019°49'1515.2
2015-Aug-24 19:33N 59°45' E 019°19'8 1.5
2015-Aug-24 14:24N 59°43' E 019°04'0 0.0
2015-Aug-24 12:24N 59°43' E 019°04'0 0.0
2015-Aug-24 11:33N 59°43' E 019°04'0 0.0
2015-Aug-24 04:26N 59°43' E 019°04'8 9.6
2015-Aug-24 03:33N 59°46' E 019°20'1312.8
2015-Aug-24 02:33N 59°43' E 019°45'1515.2
2015-Aug-24 01:33N 59°36' E 020°12'3115.4
2015-Aug-23 23:33N 59°29' E 021°12'1515.2
2015-Aug-23 22:33N 59°26' E 021°40'1515.3
2015-Aug-23 21:33N 59°22' E 022°10'1615.7
2015-Aug-23 20:33N 59°20' E 022°40'1616.0
2015-Aug-23 19:34N 59°21' E 023°12'1616.2
2015-Aug-23 18:33N 59°22' E 023°43'9 2.9
2015-Aug-23 15:26N 59°21' E 024°01'1414.6
2015-Aug-23 14:31N 59°23' E 023°35'1415.1
2015-Aug-23 13:34N 59°23' E 023°06'1615.6
2015-Aug-23 12:33N 59°23' E 022°36'1616.0
2015-Aug-23 11:33N 59°27' E 022°05'1616.1
2015-Aug-23 10:33N 59°31' E 021°34'1616.2
2015-Aug-23 09:33N 59°36' E 021°04'1716.0
2015-Aug-23 08:29N 59°41' E 020°31'1415.3
2015-Aug-23 07:33N 59°45' E 020°04'1615.9
2015-Aug-23 06:33N 59°46' E 019°32'13 5.2
2015-Aug-23 04:06N 59°43' E 019°07'814.4
2015-Aug-23 03:33N 59°46' E 019°22'1413.6
2015-Aug-23 02:33N 59°43' E 019°49'1312.9
2015-Aug-23 01:33N 59°37' E 020°11'  
Track history (hours):
 
Tides and Currents Weather Stations Pressure Air Temp Water Temp Dewpoint Dewpoint Depression Visibility Wind Speed Wind Dir Waves Ship Positions

Regal Star

Last reported at 2015-Sep-01 23:29 UTC. Time now 2015-Sep-02 16:57 UTC.
Position N 59°28' E 021°17'.

Length 157 m; draft 5.7 m.

Type: Passenger vessel. MMSI: 276554000.

Date/timePositionNaut miles runAvg speedWind from/ knotsBaromVisibWave heightAir tempDewpointWater temp
2015-Sep-01 23:29N 59°28' E 021°17'42 1.9
2015-Sep-01 02:07N 59°23' E 022°38'2314.6
2015-Sep-01 00:33N 59°28' E 021°54'1515.2
2015-Aug-31 23:33N 59°33' E 021°26'1515.1
2015-Aug-31 22:33N 59°37' E 020°57'57 3.1
2015-Aug-31 04:14N 59°43' E 019°04'913.5
2015-Aug-31 03:33N 59°46' E 019°22'5315.5
2015-Aug-31 00:09N 59°31' E 021°02'915.9
2015-Aug-30 23:33N 59°28' E 021°20'1815.8
2015-Aug-30 22:25N 59°24' E 021°54'3615.9
2015-Aug-30 20:07N 59°21' E 023°05'33 3.8
2015-Aug-30 11:22N 59°27' E 022°02'1416.2
2015-Aug-30 10:32N 59°31' E 021°36'1716.3
2015-Aug-30 09:30N 59°36' E 021°04'10 1.0
2015-Aug-29 23:33N 59°29' E 021°16'1514.9
2015-Aug-29 22:33N 59°26' E 021°45'1715.2
2015-Aug-29 21:27N 59°22' E 022°18'8 0.4
2015-Aug-29 01:19N 59°27' E 022°04'1215.2
2015-Aug-29 00:33N 59°30' E 021°43'1715.4
2015-Aug-28 23:29N 59°35' E 021°11'10 0.4
2015-Aug-27 23:22N 59°28' E 021°27'1214.4
2015-Aug-27 22:33N 59°26' E 021°50'4514.8
2015-Aug-27 19:29N 59°22' E 023°18'1516.0
2015-Aug-27 18:33N 59°23' E 023°47'54 3.1
2015-Aug-27 01:07N 59°27' E 022°02'815.1
2015-Aug-27 00:33N 59°30' E 021°46'1515.2
2015-Aug-26 23:33N 59°34' E 021°17'16 0.7
2015-Aug-25 22:33N 59°26' E 021°45'3115.4
2015-Aug-25 20:33N 59°21' E 022°45'1615.7
2015-Aug-25 19:32N 59°22' E 023°17'25 2.5
2015-Aug-25 09:33N 59°20' E 024°05'0 0.0
2015-Aug-25 08:33N 59°20' E 024°05'0 0.0
2015-Aug-25 07:06N 59°20' E 024°05'0 0.0
2015-Aug-25 06:30N 59°20' E 024°05'0 0.0
2015-Aug-25 05:33N 59°20' E 024°05'1110.8
2015-Aug-25 04:33N 59°23' E 023°45'1515.0
2015-Aug-25 03:33N 59°23' E 023°15'1515.3
2015-Aug-25 02:34N 59°23' E 022°45'1515.4
2015-Aug-25 01:34N 59°25' E 022°15'1615.6
2015-Aug-25 00:33N 59°30' E 021°46'1615.6
2015-Aug-24 23:34N 59°34' E 021°17'1615.5
2015-Aug-24 22:33N 59°39' E 020°47'1515.1
2015-Aug-24 21:33N 59°45' E 020°19'1515.5
2015-Aug-24 20:33N 59°45' E 019°49'1515.2
2015-Aug-24 19:33N 59°45' E 019°19'8 1.5
2015-Aug-24 14:24N 59°43' E 019°04'0 0.0
2015-Aug-24 12:24N 59°43' E 019°04'0 0.0
2015-Aug-24 11:33N 59°43' E 019°04'0 0.0
2015-Aug-24 04:26N 59°43' E 019°04'8 9.6
2015-Aug-24 03:33N 59°46' E 019°20'1312.8
2015-Aug-24 02:33N 59°43' E 019°45'1515.2
2015-Aug-24 01:33N 59°36' E 020°12'3115.4
2015-Aug-23 23:33N 59°29' E 021°12'1515.2
2015-Aug-23 22:33N 59°26' E 021°40'1515.3
2015-Aug-23 21:33N 59°22' E 022°10'1615.7
2015-Aug-23 20:33N 59°20' E 022°40'1616.0
2015-Aug-23 19:34N 59°21' E 023°12'1616.2
2015-Aug-23 18:33N 59°22' E 023°43'9 2.9
2015-Aug-23 15:26N 59°21' E 024°01'1414.6
2015-Aug-23 14:31N 59°23' E 023°35'1415.1
2015-Aug-23 13:34N 59°23' E 023°06'1615.6
2015-Aug-23 12:33N 59°23' E 022°36'1616.0
2015-Aug-23 11:33N 59°27' E 022°05'1616.1
2015-Aug-23 10:33N 59°31' E 021°34'1616.2
2015-Aug-23 09:33N 59°36' E 021°04'1716.0
2015-Aug-23 08:29N 59°41' E 020°31'1415.3
2015-Aug-23 07:33N 59°45' E 020°04'1615.9
2015-Aug-23 06:33N 59°46' E 019°32'13 5.2
2015-Aug-23 04:06N 59°43' E 019°07'814.4
2015-Aug-23 03:33N 59°46' E 019°22'1413.6
2015-Aug-23 02:33N 59°43' E 019°49'1312.9
2015-Aug-23 01:33N 59°37' E 020°11'  

Dump ship's entire track history